sensor_id;sensor_type;location;lat;lon;timestamp;P1;durP1;ratioP1;P2;durP2;ratioP2
3573;SDS011;1801;51.050;6.246;2022-12-19T00:02:06;72.83;;;24.90;;
3573;SDS011;1801;51.050;6.246;2022-12-19T00:04:31;76.13;;;23.57;;
3573;SDS011;1801;51.050;6.246;2022-12-19T00:06:56;65.17;;;21.60;;
3573;SDS011;1801;51.050;6.246;2022-12-19T00:09:25;69.63;;;23.60;;
3573;SDS011;1801;51.050;6.246;2022-12-19T00:11:50;67.93;;;23.83;;
3573;SDS011;1801;51.050;6.246;2022-12-19T00:14:15;74.80;;;27.27;;
3573;SDS011;1801;51.050;6.246;2022-12-19T00:16:41;65.70;;;24.07;;
3573;SDS011;1801;51.050;6.246;2022-12-19T00:19:06;77.27;;;25.23;;
3573;SDS011;1801;51.050;6.246;2022-12-19T00:21:32;61.30;;;24.43;;
3573;SDS011;1801;51.050;6.246;2022-12-19T00:23:57;55.08;;;22.98;;
3573;SDS011;1801;51.050;6.246;2022-12-19T00:28:50;63.20;;;24.27;;
3573;SDS011;1801;51.050;6.246;2022-12-19T00:31:16;68.75;;;25.70;;
3573;SDS011;1801;51.050;6.246;2022-12-19T00:33:42;61.27;;;23.77;;
3573;SDS011;1801;51.050;6.246;2022-12-19T00:36:11;67.97;;;23.70;;
3573;SDS011;1801;51.050;6.246;2022-12-19T00:38:37;65.00;;;25.80;;
3573;SDS011;1801;51.050;6.246;2022-12-19T00:41:06;64.23;;;22.20;;
3573;SDS011;1801;51.050;6.246;2022-12-19T00:43:31;53.80;;;21.30;;
3573;SDS011;1801;51.050;6.246;2022-12-19T00:45:56;61.40;;;20.50;;
3573;SDS011;1801;51.050;6.246;2022-12-19T00:48:21;65.53;;;22.90;;
3573;SDS011;1801;51.050;6.246;2022-12-19T00:50:47;68.27;;;24.10;;
3573;SDS011;1801;51.050;6.246;2022-12-19T00:53:12;67.53;;;23.50;;
3573;SDS011;1801;51.050;6.246;2022-12-19T00:55:37;57.97;;;22.67;;
3573;SDS011;1801;51.050;6.246;2022-12-19T00:58:02;71.63;;;24.37;;
3573;SDS011;1801;51.050;6.246;2022-12-19T01:00:28;71.70;;;22.77;;
3573;SDS011;1801;51.050;6.246;2022-12-19T01:02:53;62.87;;;23.83;;
3573;SDS011;1801;51.050;6.246;2022-12-19T01:05:18;64.50;;;23.57;;
3573;SDS011;1801;51.050;6.246;2022-12-19T01:07:43;66.33;;;25.40;;
3573;SDS011;1801;51.050;6.246;2022-12-19T01:10:08;73.53;;;25.93;;
3573;SDS011;1801;51.050;6.246;2022-12-19T01:12:34;60.97;;;24.93;;
3573;SDS011;1801;51.050;6.246;2022-12-19T01:15:13;66.25;;;23.77;;
3573;SDS011;1801;51.050;6.246;2022-12-19T01:17:39;73.20;;;24.63;;
3573;SDS011;1801;51.050;6.246;2022-12-19T01:20:04;70.17;;;26.23;;
3573;SDS011;1801;51.050;6.246;2022-12-19T01:22:30;68.70;;;23.43;;
3573;SDS011;1801;51.050;6.246;2022-12-19T01:24:55;56.23;;;22.17;;
3573;SDS011;1801;51.050;6.246;2022-12-19T01:27:20;60.03;;;24.83;;
3573;SDS011;1801;51.050;6.246;2022-12-19T01:29:45;56.27;;;23.23;;
3573;SDS011;1801;51.050;6.246;2022-12-19T01:32:11;69.93;;;24.20;;
3573;SDS011;1801;51.050;6.246;2022-12-19T01:34:36;60.67;;;23.20;;
3573;SDS011;1801;51.050;6.246;2022-12-19T01:37:01;62.43;;;21.27;;
3573;SDS011;1801;51.050;6.246;2022-12-19T01:39:26;73.87;;;24.33;;
3573;SDS011;1801;51.050;6.246;2022-12-19T01:41:51;58.47;;;23.57;;
3573;SDS011;1801;51.050;6.246;2022-12-19T01:44:17;54.30;;;22.17;;
3573;SDS011;1801;51.050;6.246;2022-12-19T01:46:43;76.53;;;23.37;;
3573;SDS011;1801;51.050;6.246;2022-12-19T01:49:17;66.07;;;23.23;;
3573;SDS011;1801;51.050;6.246;2022-12-19T01:51:45;58.75;;;19.80;;
3573;SDS011;1801;51.050;6.246;2022-12-19T01:54:13;58.95;;;23.27;;
3573;SDS011;1801;51.050;6.246;2022-12-19T01:56:40;54.38;;;19.90;;
3573;SDS011;1801;51.050;6.246;2022-12-19T01:59:08;66.88;;;23.60;;
3573;SDS011;1801;51.050;6.246;2022-12-19T02:01:34;57.13;;;20.60;;
3573;SDS011;1801;51.050;6.246;2022-12-19T02:04:00;66.97;;;24.50;;
3573;SDS011;1801;51.050;6.246;2022-12-19T02:06:26;68.38;;;22.27;;
3573;SDS011;1801;51.050;6.246;2022-12-19T02:08:51;62.03;;;21.97;;
3573;SDS011;1801;51.050;6.246;2022-12-19T02:11:17;63.73;;;23.70;;
3573;SDS011;1801;51.050;6.246;2022-12-19T02:13:42;56.77;;;22.47;;
3573;SDS011;1801;51.050;6.246;2022-12-19T02:26:31;61.10;;;22.50;;
3573;SDS011;1801;51.050;6.246;2022-12-19T02:31:35;56.55;;;20.20;;
3573;SDS011;1801;51.050;6.246;2022-12-19T02:36:35;64.85;;;20.80;;
3573;SDS011;1801;51.050;6.246;2022-12-19T02:39:04;60.80;;;19.17;;
3573;SDS011;1801;51.050;6.246;2022-12-19T02:41:32;62.00;;;23.33;;
3573;SDS011;1801;51.050;6.246;2022-12-19T02:44:07;58.40;;;22.35;;
3573;SDS011;1801;51.050;6.246;2022-12-19T02:46:33;63.63;;;21.08;;
3573;SDS011;1801;51.050;6.246;2022-12-19T02:48:58;53.90;;;22.00;;
3573;SDS011;1801;51.050;6.246;2022-12-19T02:51:23;55.17;;;20.00;;
3573;SDS011;1801;51.050;6.246;2022-12-19T02:53:48;61.77;;;22.23;;
3573;SDS011;1801;51.050;6.246;2022-12-19T02:56:32;59.70;;;21.03;;
3573;SDS011;1801;51.050;6.246;2022-12-19T03:05:03;68.32;;;23.08;;
3573;SDS011;1801;51.050;6.246;2022-12-19T03:12:31;74.85;;;22.67;;
3573;SDS011;1801;51.050;6.246;2022-12-19T03:14:58;49.97;;;21.63;;
3573;SDS011;1801;51.050;6.246;2022-12-19T03:17:23;72.73;;;23.17;;
3573;SDS011;1801;51.050;6.246;2022-12-19T03:19:49;93.90;;;25.70;;
3573;SDS011;1801;51.050;6.246;2022-12-19T03:22:14;63.83;;;24.40;;
3573;SDS011;1801;51.050;6.246;2022-12-19T03:24:39;70.87;;;24.10;;
3573;SDS011;1801;51.050;6.246;2022-12-19T03:27:09;62.40;;;23.57;;
3573;SDS011;1801;51.050;6.246;2022-12-19T03:29:42;54.75;;;21.77;;
3573;SDS011;1801;51.050;6.246;2022-12-19T03:32:09;73.03;;;24.15;;
3573;SDS011;1801;51.050;6.246;2022-12-19T03:37:04;82.65;;;24.45;;
3573;SDS011;1801;51.050;6.246;2022-12-19T03:39:31;63.25;;;23.92;;
3573;SDS011;1801;51.050;6.246;2022-12-19T03:41:57;57.33;;;22.90;;
3573;SDS011;1801;51.050;6.246;2022-12-19T03:44:42;70.00;;;25.85;;
3573;SDS011;1801;51.050;6.246;2022-12-19T03:47:13;75.43;;;25.00;;
3573;SDS011;1801;51.050;6.246;2022-12-19T03:49:39;70.50;;;24.02;;
3573;SDS011;1801;51.050;6.246;2022-12-19T03:52:09;62.00;;;25.23;;
3573;SDS011;1801;51.050;6.246;2022-12-19T03:54:37;71.78;;;23.55;;
3573;SDS011;1801;51.050;6.246;2022-12-19T03:59:44;59.80;;;24.38;;
3573;SDS011;1801;51.050;6.246;2022-12-19T04:02:10;69.88;;;25.75;;
3573;SDS011;1801;51.050;6.246;2022-12-19T04:04:44;72.82;;;24.30;;
3573;SDS011;1801;51.050;6.246;2022-12-19T04:07:11;70.45;;;24.20;;
3573;SDS011;1801;51.050;6.246;2022-12-19T04:09:37;70.80;;;25.27;;
3573;SDS011;1801;51.050;6.246;2022-12-19T04:12:04;63.37;;;22.97;;
3573;SDS011;1801;51.050;6.246;2022-12-19T04:14:31;73.72;;;26.48;;
3573;SDS011;1801;51.050;6.246;2022-12-19T04:22:13;62.28;;;23.70;;
3573;SDS011;1801;51.050;6.246;2022-12-19T04:24:40;77.70;;;24.58;;
3573;SDS011;1801;51.050;6.246;2022-12-19T04:27:06;74.72;;;24.55;;
3573;SDS011;1801;51.050;6.246;2022-12-19T04:29:33;70.87;;;25.00;;
3573;SDS011;1801;51.050;6.246;2022-12-19T04:32:00;59.95;;;23.30;;
3573;SDS011;1801;51.050;6.246;2022-12-19T04:34:25;76.00;;;25.88;;
3573;SDS011;1801;51.050;6.246;2022-12-19T04:36:51;98.97;;;28.40;;
3573;SDS011;1801;51.050;6.246;2022-12-19T04:39:16;64.97;;;23.80;;
3573;SDS011;1801;51.050;6.246;2022-12-19T04:41:41;74.80;;;25.90;;
3573;SDS011;1801;51.050;6.246;2022-12-19T04:44:06;69.27;;;22.27;;
3573;SDS011;1801;51.050;6.246;2022-12-19T04:46:32;60.93;;;21.80;;
3573;SDS011;1801;51.050;6.246;2022-12-19T04:48:57;74.23;;;25.27;;
3573;SDS011;1801;51.050;6.246;2022-12-19T04:51:22;77.53;;;25.80;;
3573;SDS011;1801;51.050;6.246;2022-12-19T04:53:47;83.13;;;26.03;;
3573;SDS011;1801;51.050;6.246;2022-12-19T04:56:13;76.83;;;23.97;;
3573;SDS011;1801;51.050;6.246;2022-12-19T04:58:38;67.20;;;23.47;;
3573;SDS011;1801;51.050;6.246;2022-12-19T05:01:04;70.93;;;21.87;;
3573;SDS011;1801;51.050;6.246;2022-12-19T05:03:29;77.55;;;24.63;;
3573;SDS011;1801;51.050;6.246;2022-12-19T05:06:05;65.50;;;21.40;;
3573;SDS011;1801;51.050;6.246;2022-12-19T05:08:30;70.00;;;23.40;;
3573;SDS011;1801;51.050;6.246;2022-12-19T05:11:02;54.27;;;19.33;;
3573;SDS011;1801;51.050;6.246;2022-12-19T05:13:27;62.45;;;19.27;;
3573;SDS011;1801;51.050;6.246;2022-12-19T05:15:54;58.03;;;20.58;;
3573;SDS011;1801;51.050;6.246;2022-12-19T05:18:20;54.95;;;21.50;;
3573;SDS011;1801;51.050;6.246;2022-12-19T05:20:47;51.63;;;19.10;;
3573;SDS011;1801;51.050;6.246;2022-12-19T05:23:12;39.70;;;18.13;;
3573;SDS011;1801;51.050;6.246;2022-12-19T05:25:37;40.17;;;17.30;;
3573;SDS011;1801;51.050;6.246;2022-12-19T05:28:02;41.03;;;15.97;;
3573;SDS011;1801;51.050;6.246;2022-12-19T05:30:27;46.57;;;16.70;;
3573;SDS011;1801;51.050;6.246;2022-12-19T05:32:53;38.20;;;15.23;;
3573;SDS011;1801;51.050;6.246;2022-12-19T05:35:18;44.83;;;16.57;;
3573;SDS011;1801;51.050;6.246;2022-12-19T05:37:43;39.47;;;16.00;;
3573;SDS011;1801;51.050;6.246;2022-12-19T05:40:08;34.60;;;13.40;;
3573;SDS011;1801;51.050;6.246;2022-12-19T05:42:34;36.40;;;15.43;;
3573;SDS011;1801;51.050;6.246;2022-12-19T05:44:59;28.53;;;11.60;;
3573;SDS011;1801;51.050;6.246;2022-12-19T05:47:24;28.63;;;12.50;;
3573;SDS011;1801;51.050;6.246;2022-12-19T05:49:49;30.97;;;13.03;;
3573;SDS011;1801;51.050;6.246;2022-12-19T05:52:14;26.37;;;10.47;;
3573;SDS011;1801;51.050;6.246;2022-12-19T05:54:39;25.47;;;10.40;;
3573;SDS011;1801;51.050;6.246;2022-12-19T05:57:05;24.00;;;10.80;;
3573;SDS011;1801;51.050;6.246;2022-12-19T05:59:30;24.80;;;9.47;;
3573;SDS011;1801;51.050;6.246;2022-12-19T06:01:55;25.57;;;11.83;;
3573;SDS011;1801;51.050;6.246;2022-12-19T06:04:20;15.07;;;8.00;;
3573;SDS011;1801;51.050;6.246;2022-12-19T06:06:45;16.13;;;8.70;;
3573;SDS011;1801;51.050;6.246;2022-12-19T06:09:10;18.00;;;9.00;;
3573;SDS011;1801;51.050;6.246;2022-12-19T06:11:36;19.53;;;8.50;;
3573;SDS011;1801;51.050;6.246;2022-12-19T06:14:01;15.30;;;7.90;;
3573;SDS011;1801;51.050;6.246;2022-12-19T06:16:26;14.43;;;7.57;;
3573;SDS011;1801;51.050;6.246;2022-12-19T06:18:51;11.50;;;6.93;;
3573;SDS011;1801;51.050;6.246;2022-12-19T06:21:20;16.77;;;6.20;;
3573;SDS011;1801;51.050;6.246;2022-12-19T06:23:45;13.02;;;6.30;;
3573;SDS011;1801;51.050;6.246;2022-12-19T06:26:12;13.93;;;6.47;;
3573;SDS011;1801;51.050;6.246;2022-12-19T06:28:37;11.27;;;5.97;;
3573;SDS011;1801;51.050;6.246;2022-12-19T06:31:03;18.53;;;6.33;;
3573;SDS011;1801;51.050;6.246;2022-12-19T06:33:29;15.57;;;7.75;;
3573;SDS011;1801;51.050;6.246;2022-12-19T06:35:58;8.73;;;5.17;;
3573;SDS011;1801;51.050;6.246;2022-12-19T06:38:24;11.35;;;6.65;;
3573;SDS011;1801;51.050;6.246;2022-12-19T06:40:49;11.50;;;5.20;;
3573;SDS011;1801;51.050;6.246;2022-12-19T06:43:33;13.27;;;6.32;;
3573;SDS011;1801;51.050;6.246;2022-12-19T06:45:58;10.00;;;5.20;;
3573;SDS011;1801;51.050;6.246;2022-12-19T06:48:25;12.53;;;6.50;;
3573;SDS011;1801;51.050;6.246;2022-12-19T06:50:50;18.83;;;6.63;;
3573;SDS011;1801;51.050;6.246;2022-12-19T06:53:15;9.20;;;4.90;;
3573;SDS011;1801;51.050;6.246;2022-12-19T06:55:43;10.35;;;5.88;;
3573;SDS011;1801;51.050;6.246;2022-12-19T06:58:11;11.93;;;6.25;;
3573;SDS011;1801;51.050;6.246;2022-12-19T07:00:37;11.20;;;5.43;;
3573;SDS011;1801;51.050;6.246;2022-12-19T07:03:02;12.60;;;6.47;;
3573;SDS011;1801;51.050;6.246;2022-12-19T07:05:28;11.85;;;6.93;;
3573;SDS011;1801;51.050;6.246;2022-12-19T07:07:54;11.47;;;5.73;;
3573;SDS011;1801;51.050;6.246;2022-12-19T07:10:19;12.13;;;5.60;;
3573;SDS011;1801;51.050;6.246;2022-12-19T07:12:44;10.50;;;6.07;;
3573;SDS011;1801;51.050;6.246;2022-12-19T07:15:09;10.17;;;4.70;;
3573;SDS011;1801;51.050;6.246;2022-12-19T07:17:34;12.67;;;5.77;;
3573;SDS011;1801;51.050;6.246;2022-12-19T07:20:00;14.83;;;5.93;;
3573;SDS011;1801;51.050;6.246;2022-12-19T07:22:26;17.00;;;6.00;;
3573;SDS011;1801;51.050;6.246;2022-12-19T07:24:53;13.82;;;6.70;;
3573;SDS011;1801;51.050;6.246;2022-12-19T07:27:18;10.43;;;6.23;;
3573;SDS011;1801;51.050;6.246;2022-12-19T07:29:43;16.20;;;6.07;;
3573;SDS011;1801;51.050;6.246;2022-12-19T07:32:08;10.87;;;5.97;;
3573;SDS011;1801;51.050;6.246;2022-12-19T07:34:34;13.50;;;6.20;;
3573;SDS011;1801;51.050;6.246;2022-12-19T07:36:59;8.93;;;5.97;;
3573;SDS011;1801;51.050;6.246;2022-12-19T07:39:24;8.43;;;4.90;;
3573;SDS011;1801;51.050;6.246;2022-12-19T07:41:49;9.50;;;5.87;;
3573;SDS011;1801;51.050;6.246;2022-12-19T07:44:14;10.60;;;5.73;;
3573;SDS011;1801;51.050;6.246;2022-12-19T07:46:41;12.90;;;5.97;;
3573;SDS011;1801;51.050;6.246;2022-12-19T07:49:06;9.68;;;5.50;;
3573;SDS011;1801;51.050;6.246;2022-12-19T07:51:31;10.30;;;6.13;;
3573;SDS011;1801;51.050;6.246;2022-12-19T07:53:57;10.13;;;4.87;;
3573;SDS011;1801;51.050;6.246;2022-12-19T07:56:22;9.47;;;5.43;;
3573;SDS011;1801;51.050;6.246;2022-12-19T07:58:47;13.47;;;5.57;;
3573;SDS011;1801;51.050;6.246;2022-12-19T08:01:13;6.73;;;4.83;;
3573;SDS011;1801;51.050;6.246;2022-12-19T08:03:38;11.40;;;5.47;;
3573;SDS011;1801;51.050;6.246;2022-12-19T08:06:04;9.70;;;5.60;;
3573;SDS011;1801;51.050;6.246;2022-12-19T08:08:30;8.20;;;5.18;;
3573;SDS011;1801;51.050;6.246;2022-12-19T08:11:04;8.70;;;4.67;;
3573;SDS011;1801;51.050;6.246;2022-12-19T08:13:30;10.23;;;5.40;;
3573;SDS011;1801;51.050;6.246;2022-12-19T08:15:58;10.70;;;5.70;;
3573;SDS011;1801;51.050;6.246;2022-12-19T08:18:23;15.82;;;6.90;;
3573;SDS011;1801;51.050;6.246;2022-12-19T08:20:49;13.25;;;5.72;;
3573;SDS011;1801;51.050;6.246;2022-12-19T08:23:15;8.57;;;5.20;;
3573;SDS011;1801;51.050;6.246;2022-12-19T08:25:40;7.73;;;5.20;;
3573;SDS011;1801;51.050;6.246;2022-12-19T08:28:05;11.17;;;5.40;;
3573;SDS011;1801;51.050;6.246;2022-12-19T08:30:31;12.43;;;6.30;;
3573;SDS011;1801;51.050;6.246;2022-12-19T08:32:56;7.90;;;5.50;;
3573;SDS011;1801;51.050;6.246;2022-12-19T08:35:30;9.63;;;5.00;;
3573;SDS011;1801;51.050;6.246;2022-12-19T08:37:55;10.73;;;5.65;;
3573;SDS011;1801;51.050;6.246;2022-12-19T08:40:20;9.73;;;5.00;;
3573;SDS011;1801;51.050;6.246;2022-12-19T08:42:47;9.90;;;4.70;;
3573;SDS011;1801;51.050;6.246;2022-12-19T08:45:12;11.27;;;5.70;;
3573;SDS011;1801;51.050;6.246;2022-12-19T08:47:37;12.40;;;5.47;;
3573;SDS011;1801;51.050;6.246;2022-12-19T08:50:02;10.47;;;5.13;;
3573;SDS011;1801;51.050;6.246;2022-12-19T08:52:28;8.17;;;5.27;;
3573;SDS011;1801;51.050;6.246;2022-12-19T08:54:53;6.80;;;4.83;;
3573;SDS011;1801;51.050;6.246;2022-12-19T08:57:18;7.23;;;3.97;;
3573;SDS011;1801;51.050;6.246;2022-12-19T08:59:44;10.70;;;4.87;;
3573;SDS011;1801;51.050;6.246;2022-12-19T09:02:09;9.90;;;5.40;;
3573;SDS011;1801;51.050;6.246;2022-12-19T09:04:35;7.47;;;4.60;;
3573;SDS011;1801;51.050;6.246;2022-12-19T09:07:01;12.68;;;5.70;;
3573;SDS011;1801;51.050;6.246;2022-12-19T09:09:26;9.77;;;4.60;;
3573;SDS011;1801;51.050;6.246;2022-12-19T09:11:52;6.13;;;3.70;;
3573;SDS011;1801;51.050;6.246;2022-12-19T09:14:17;8.80;;;4.60;;
3573;SDS011;1801;51.050;6.246;2022-12-19T09:16:42;7.80;;;4.63;;
3573;SDS011;1801;51.050;6.246;2022-12-19T09:19:07;6.20;;;4.23;;
3573;SDS011;1801;51.050;6.246;2022-12-19T09:21:39;7.60;;;4.50;;
3573;SDS011;1801;51.050;6.246;2022-12-19T09:24:04;8.80;;;4.33;;
3573;SDS011;1801;51.050;6.246;2022-12-19T09:26:29;9.27;;;6.07;;
3573;SDS011;1801;51.050;6.246;2022-12-19T09:28:54;7.37;;;4.37;;
3573;SDS011;1801;51.050;6.246;2022-12-19T09:31:21;13.70;;;4.73;;
3573;SDS011;1801;51.050;6.246;2022-12-19T09:33:46;6.90;;;4.07;;
3573;SDS011;1801;51.050;6.246;2022-12-19T09:36:22;7.93;;;4.90;;
3573;SDS011;1801;51.050;6.246;2022-12-19T09:38:48;11.95;;;5.72;;
3573;SDS011;1801;51.050;6.246;2022-12-19T09:44:03;10.18;;;5.13;;
3573;SDS011;1801;51.050;6.246;2022-12-19T09:46:33;9.63;;;4.65;;
3573;SDS011;1801;51.050;6.246;2022-12-19T09:49:09;8.50;;;5.03;;
3573;SDS011;1801;51.050;6.246;2022-12-19T09:51:58;6.50;;;4.38;;
3573;SDS011;1801;51.050;6.246;2022-12-19T09:54:23;8.95;;;3.97;;
3573;SDS011;1801;51.050;6.246;2022-12-19T09:56:51;7.93;;;4.73;;
3573;SDS011;1801;51.050;6.246;2022-12-19T09:59:30;10.20;;;4.57;;
3573;SDS011;1801;51.050;6.246;2022-12-19T10:04:43;8.48;;;4.15;;
3573;SDS011;1801;51.050;6.246;2022-12-19T10:07:11;9.40;;;4.05;;
3573;SDS011;1801;51.050;6.246;2022-12-19T10:09:36;9.43;;;4.20;;
3573;SDS011;1801;51.050;6.246;2022-12-19T10:14:34;8.82;;;4.30;;
3573;SDS011;1801;51.050;6.246;2022-12-19T10:17:22;7.90;;;4.90;;
3573;SDS011;1801;51.050;6.246;2022-12-19T10:30:31;8.80;;;4.50;;
3573;SDS011;1801;51.050;6.246;2022-12-19T10:35:17;6.70;;;3.97;;
3573;SDS011;1801;51.050;6.246;2022-12-19T10:37:49;6.73;;;3.93;;
3573;SDS011;1801;51.050;6.246;2022-12-19T10:40:27;7.50;;;4.10;;
3573;SDS011;1801;51.050;6.246;2022-12-19T10:42:56;5.78;;;3.72;;
3573;SDS011;1801;51.050;6.246;2022-12-19T10:45:22;7.75;;;4.78;;
3573;SDS011;1801;51.050;6.246;2022-12-19T10:47:54;6.47;;;3.63;;
3573;SDS011;1801;51.050;6.246;2022-12-19T10:50:21;9.43;;;4.13;;
3573;SDS011;1801;51.050;6.246;2022-12-19T10:57:57;6.20;;;3.80;;
3573;SDS011;1801;51.050;6.246;2022-12-19T11:00:22;5.50;;;3.50;;
3573;SDS011;1801;51.050;6.246;2022-12-19T11:02:48;7.70;;;3.33;;
3573;SDS011;1801;51.050;6.246;2022-12-19T11:05:20;4.70;;;3.43;;
3573;SDS011;1801;51.050;6.246;2022-12-19T11:10:48;4.63;;;3.80;;
3573;SDS011;1801;51.050;6.246;2022-12-19T11:13:59;8.13;;;3.97;;
3573;SDS011;1801;51.050;6.246;2022-12-19T11:16:03;5.68;;;3.47;;
3573;SDS011;1801;51.050;6.246;2022-12-19T11:18:34;6.80;;;4.17;;
3573;SDS011;1801;51.050;6.246;2022-12-19T11:26:11;8.40;;;4.03;;
3573;SDS011;1801;51.050;6.246;2022-12-19T11:28:50;7.40;;;4.33;;
3573;SDS011;1801;51.050;6.246;2022-12-19T11:33:45;5.23;;;3.60;;
3573;SDS011;1801;51.050;6.246;2022-12-19T11:36:24;6.07;;;3.77;;
3573;SDS011;1801;51.050;6.246;2022-12-19T11:38:52;6.03;;;4.10;;
3573;SDS011;1801;51.050;6.246;2022-12-19T11:41:19;4.33;;;3.30;;
3573;SDS011;1801;51.050;6.246;2022-12-19T11:53:33;6.75;;;3.13;;
3573;SDS011;1801;51.050;6.246;2022-12-19T11:56:02;8.07;;;4.10;;
3573;SDS011;1801;51.050;6.246;2022-12-19T11:58:27;5.80;;;2.97;;
3573;SDS011;1801;51.050;6.246;2022-12-19T12:06:12;6.37;;;4.00;;
3573;SDS011;1801;51.050;6.246;2022-12-19T12:08:41;3.97;;;2.40;;
3573;SDS011;1801;51.050;6.246;2022-12-19T12:11:19;7.20;;;2.60;;
3573;SDS011;1801;51.050;6.246;2022-12-19T12:14:11;7.17;;;3.40;;
3573;SDS011;1801;51.050;6.246;2022-12-19T12:19:41;4.20;;;3.30;;
3573;SDS011;1801;51.050;6.246;2022-12-19T12:22:28;5.93;;;2.70;;
3573;SDS011;1801;51.050;6.246;2022-12-19T12:25:04;4.83;;;3.40;;
3573;SDS011;1801;51.050;6.246;2022-12-19T12:27:38;5.40;;;2.73;;
3573;SDS011;1801;51.050;6.246;2022-12-19T12:30:11;6.63;;;2.93;;
3573;SDS011;1801;51.050;6.246;2022-12-19T12:35:25;4.30;;;3.27;;
3573;SDS011;1801;51.050;6.246;2022-12-19T12:37:55;8.33;;;4.33;;
3573;SDS011;1801;51.050;6.246;2022-12-19T12:45:19;4.97;;;3.33;;
3573;SDS011;1801;51.050;6.246;2022-12-19T12:47:47;5.13;;;2.87;;
3573;SDS011;1801;51.050;6.246;2022-12-19T12:50:14;5.20;;;3.27;;
3573;SDS011;1801;51.050;6.246;2022-12-19T12:52:42;2.60;;;2.40;;
3573;SDS011;1801;51.050;6.246;2022-12-19T12:55:13;5.83;;;3.60;;
3573;SDS011;1801;51.050;6.246;2022-12-19T12:57:38;6.17;;;3.10;;
3573;SDS011;1801;51.050;6.246;2022-12-19T13:03:09;5.93;;;3.07;;
3573;SDS011;1801;51.050;6.246;2022-12-19T13:10:54;6.30;;;2.43;;
3573;SDS011;1801;51.050;6.246;2022-12-19T13:13:20;8.03;;;3.10;;
3573;SDS011;1801;51.050;6.246;2022-12-19T13:16:46;8.33;;;2.70;;
3573;SDS011;1801;51.050;6.246;2022-12-19T13:19:03;4.57;;;2.57;;
3573;SDS011;1801;51.050;6.246;2022-12-19T13:24:21;4.07;;;2.83;;
3573;SDS011;1801;51.050;6.246;2022-12-19T13:26:47;3.73;;;2.90;;
3573;SDS011;1801;51.050;6.246;2022-12-19T13:29:33;5.33;;;2.87;;
3573;SDS011;1801;51.050;6.246;2022-12-19T13:32:06;4.10;;;2.07;;
3573;SDS011;1801;51.050;6.246;2022-12-19T13:34:33;4.43;;;2.63;;
3573;SDS011;1801;51.050;6.246;2022-12-19T13:37:44;4.77;;;2.50;;
3573;SDS011;1801;51.050;6.246;2022-12-19T13:42:16;4.50;;;2.67;;
3573;SDS011;1801;51.050;6.246;2022-12-19T13:45:02;5.10;;;3.50;;
3573;SDS011;1801;51.050;6.246;2022-12-19T13:47:30;5.57;;;3.23;;
3573;SDS011;1801;51.050;6.246;2022-12-19T13:49:56;5.03;;;3.30;;
3573;SDS011;1801;51.050;6.246;2022-12-19T13:52:22;5.37;;;2.63;;
3573;SDS011;1801;51.050;6.246;2022-12-19T13:54:48;7.97;;;3.30;;
3573;SDS011;1801;51.050;6.246;2022-12-19T13:57:21;5.60;;;2.50;;
3573;SDS011;1801;51.050;6.246;2022-12-19T13:59:47;9.83;;;2.60;;
3573;SDS011;1801;51.050;6.246;2022-12-19T14:02:14;2.47;;;2.27;;
3573;SDS011;1801;51.050;6.246;2022-12-19T14:04:41;4.20;;;2.40;;
3573;SDS011;1801;51.050;6.246;2022-12-19T14:09:45;3.60;;;2.40;;
3573;SDS011;1801;51.050;6.246;2022-12-19T14:12:20;3.70;;;2.47;;
3573;SDS011;1801;51.050;6.246;2022-12-19T14:17:48;4.00;;;2.63;;
3573;SDS011;1801;51.050;6.246;2022-12-19T14:20:18;4.60;;;2.87;;
3573;SDS011;1801;51.050;6.246;2022-12-19T14:22:43;3.97;;;2.40;;
3573;SDS011;1801;51.050;6.246;2022-12-19T14:25:09;2.37;;;1.87;;
3573;SDS011;1801;51.050;6.246;2022-12-19T14:27:39;8.17;;;2.37;;
3573;SDS011;1801;51.050;6.246;2022-12-19T14:30:05;6.27;;;2.40;;
3573;SDS011;1801;51.050;6.246;2022-12-19T14:32:32;3.53;;;2.20;;
3573;SDS011;1801;51.050;6.246;2022-12-19T14:35:04;5.17;;;2.17;;
3573;SDS011;1801;51.050;6.246;2022-12-19T14:37:32;4.00;;;3.17;;
3573;SDS011;1801;51.050;6.246;2022-12-19T14:39:58;6.40;;;2.17;;
3573;SDS011;1801;51.050;6.246;2022-12-19T14:42:24;7.10;;;3.10;;
3573;SDS011;1801;51.050;6.246;2022-12-19T14:47:53;5.17;;;2.70;;
3573;SDS011;1801;51.050;6.246;2022-12-19T14:50:36;3.60;;;2.00;;
3573;SDS011;1801;51.050;6.246;2022-12-19T14:53:14;3.40;;;2.30;;
3573;SDS011;1801;51.050;6.246;2022-12-19T14:55:40;4.43;;;2.73;;
3573;SDS011;1801;51.050;6.246;2022-12-19T14:58:09;4.03;;;2.67;;
3573;SDS011;1801;51.050;6.246;2022-12-19T15:00:45;6.83;;;3.33;;
3573;SDS011;1801;51.050;6.246;2022-12-19T15:03:14;4.33;;;2.67;;
3573;SDS011;1801;51.050;6.246;2022-12-19T15:05:40;5.10;;;2.10;;
3573;SDS011;1801;51.050;6.246;2022-12-19T15:08:07;5.03;;;2.80;;
3573;SDS011;1801;51.050;6.246;2022-12-19T15:10:34;4.57;;;2.20;;
3573;SDS011;1801;51.050;6.246;2022-12-19T15:13:01;4.40;;;2.83;;
3573;SDS011;1801;51.050;6.246;2022-12-19T15:18:19;4.57;;;3.33;;
3573;SDS011;1801;51.050;6.246;2022-12-19T15:20:44;5.70;;;3.60;;
3573;SDS011;1801;51.050;6.246;2022-12-19T15:23:10;4.90;;;3.47;;
3573;SDS011;1801;51.050;6.246;2022-12-19T15:25:35;6.83;;;3.37;;
3573;SDS011;1801;51.050;6.246;2022-12-19T15:28:01;5.83;;;3.20;;
3573;SDS011;1801;51.050;6.246;2022-12-19T15:30:26;4.93;;;3.33;;
3573;SDS011;1801;51.050;6.246;2022-12-19T15:32:53;6.93;;;3.57;;
3573;SDS011;1801;51.050;6.246;2022-12-19T15:35:18;5.83;;;3.43;;
3573;SDS011;1801;51.050;6.246;2022-12-19T15:37:44;4.17;;;3.17;;
3573;SDS011;1801;51.050;6.246;2022-12-19T15:40:13;5.97;;;2.90;;
3573;SDS011;1801;51.050;6.246;2022-12-19T15:42:39;2.43;;;2.23;;
3573;SDS011;1801;51.050;6.246;2022-12-19T15:45:05;5.33;;;3.60;;
3573;SDS011;1801;51.050;6.246;2022-12-19T15:47:32;6.97;;;3.90;;
3573;SDS011;1801;51.050;6.246;2022-12-19T15:49:58;8.57;;;2.70;;
3573;SDS011;1801;51.050;6.246;2022-12-19T15:52:26;3.80;;;2.40;;
3573;SDS011;1801;51.050;6.246;2022-12-19T15:54:52;6.40;;;3.07;;
3573;SDS011;1801;51.050;6.246;2022-12-19T15:57:23;3.30;;;2.20;;
3573;SDS011;1801;51.050;6.246;2022-12-19T15:59:49;5.23;;;2.67;;
3573;SDS011;1801;51.050;6.246;2022-12-19T16:02:16;3.60;;;2.40;;
3573;SDS011;1801;51.050;6.246;2022-12-19T16:04:42;4.50;;;2.47;;
3573;SDS011;1801;51.050;6.246;2022-12-19T16:07:14;5.27;;;2.90;;
3573;SDS011;1801;51.050;6.246;2022-12-19T16:09:40;4.43;;;2.77;;
3573;SDS011;1801;51.050;6.246;2022-12-19T16:12:05;4.73;;;2.80;;
3573;SDS011;1801;51.050;6.246;2022-12-19T16:14:30;6.37;;;3.47;;
3573;SDS011;1801;51.050;6.246;2022-12-19T16:16:55;10.03;;;2.77;;
3573;SDS011;1801;51.050;6.246;2022-12-19T16:19:25;6.33;;;2.87;;
3573;SDS011;1801;51.050;6.246;2022-12-19T16:21:50;2.90;;;2.53;;
3573;SDS011;1801;51.050;6.246;2022-12-19T16:24:15;5.23;;;2.60;;
3573;SDS011;1801;51.050;6.246;2022-12-19T16:26:41;6.77;;;4.17;;
3573;SDS011;1801;51.050;6.246;2022-12-19T16:29:17;5.30;;;3.17;;
3573;SDS011;1801;51.050;6.246;2022-12-19T16:31:43;5.30;;;3.43;;
3573;SDS011;1801;51.050;6.246;2022-12-19T16:34:15;4.63;;;3.40;;
3573;SDS011;1801;51.050;6.246;2022-12-19T16:36:40;8.50;;;4.60;;
3573;SDS011;1801;51.050;6.246;2022-12-19T16:39:06;5.93;;;3.30;;
3573;SDS011;1801;51.050;6.246;2022-12-19T16:41:31;2.93;;;1.90;;
3573;SDS011;1801;51.050;6.246;2022-12-19T16:43:57;4.97;;;2.17;;
3573;SDS011;1801;51.050;6.246;2022-12-19T16:46:22;5.77;;;3.00;;
3573;SDS011;1801;51.050;6.246;2022-12-19T16:48:48;4.13;;;2.70;;
3573;SDS011;1801;51.050;6.246;2022-12-19T16:51:20;4.83;;;2.37;;
3573;SDS011;1801;51.050;6.246;2022-12-19T16:53:46;7.20;;;5.20;;
3573;SDS011;1801;51.050;6.246;2022-12-19T16:58:45;3.50;;;2.17;;
3573;SDS011;1801;51.050;6.246;2022-12-19T17:01:11;5.50;;;2.13;;
3573;SDS011;1801;51.050;6.246;2022-12-19T17:03:37;4.07;;;2.30;;
3573;SDS011;1801;51.050;6.246;2022-12-19T17:06:05;3.90;;;3.40;;
3573;SDS011;1801;51.050;6.246;2022-12-19T17:08:30;3.00;;;2.10;;
3573;SDS011;1801;51.050;6.246;2022-12-19T17:10:56;2.83;;;2.03;;
3573;SDS011;1801;51.050;6.246;2022-12-19T17:13:21;4.20;;;2.67;;
3573;SDS011;1801;51.050;6.246;2022-12-19T17:15:47;4.27;;;2.00;;